ESSA

Stockholm-Arlanda Airport

Stockholm, Sweden
METAR ESSA 170150Z 31004KT CAVOK M02/M03 Q1008 R01L/19//76 R01R/19//80 R08/19//74 BECMG BKN030
Observed Flight Rules
Dec-17 @ 01:50 UTC (32 minutes ago) Visual Flight Rules
Wind Visibility Clouds
310° at 4 knots 10,000+ meters
  • Clear skies
Temperatures Readings
Current -2°C / 28°F
Dewpoint -3°C / 27°F
Humidity 93%
Altimeter 29.76" Hg
Pressure 1008 hPa
Elevation 61
METAR ESSA 170150Z 31004KT CAVOK M02/M03 Q1008 R01L/19//76 R01R/19//80 R08/19//74 BECMG BKN030
Observed Flight Rules
Dec-17 @ 01:50 UTC
(32 minutes ago)
VFR
Wind Visibility
310° at 4 knots 10,000+ meters
Clouds
  • Clear skies
Temperature Dewpoint
-2°C / 28°F -3°C / 27°F
Humidity Altimeter Pressure
93% 29.76" Hg 1008 hPa